Time;durP1;ratioP1;P1;durP2;ratioP2;P2;SDS_P1;SDS_P2;PMS_P1;PMS_P2;Temp;Humidity;BMP_temperature;BMP_pressure;BME280_temperature;BME280_humidity;BME280_pressure;Samples;Min_cycle;Max_cycle;Signal;HPM_P1;HPM_P2
2021/12/17 00:04:49;;;;;;;73.05;12.25;;;;;;;10.21;78.12;104134.75;4941378;28;20387;-61
2021/12/17 00:07:15;;;;;;;54.40;11.27;;;;;;;10.24;78.33;104142.81;4942613;28;20197;-61
2021/12/17 00:09:42;;;;;;;73.75;12.23;;;;;;;10.20;77.99;104145.97;4935191;28;20734;-60
2021/12/17 00:12:12;;;;;;;55.67;14.68;;;;;;;10.21;78.05;104153.00;4935074;28;20580;-60
2021/12/17 00:14:39;;;;;;;58.97;14.38;;;;;;;10.22;77.94;104146.09;4935781;28;20054;-61
2021/12/17 00:17:08;;;;;;;64.03;15.35;;;;;;;10.22;78.08;104147.00;4941516;28;20504;-60
2021/12/17 00:49:32;;;;;;;64.20;18.33;;;;;;;10.29;78.35;104151.84;4937812;28;20053;-59
2021/12/17 00:52:02;;;;;;;62.30;18.58;;;;;;;10.31;78.57;104147.59;4938613;28;20061;-59
2021/12/17 00:54:32;;;;;;;70.43;20.67;;;;;;;10.34;78.56;104149.53;4939233;28;20080;-60
2021/12/17 00:57:01;;;;;;;65.93;20.23;;;;;;;10.35;78.42;104146.13;4958626;28;20495;-60
2021/12/17 00:59:26;;;;;;;64.63;20.02;;;;;;;10.30;78.16;104147.53;4935718;28;21046;-61
2021/12/17 01:01:53;;;;;;;66.75;20.15;;;;;;;10.32;78.14;104145.91;4939212;28;20061;-59
2021/12/17 01:04:19;;;;;;;63.95;21.17;;;;;;;10.31;78.52;104146.69;4940234;28;20054;-60
2021/12/17 01:06:45;;;;;;;67.03;19.00;;;;;;;10.31;78.43;104152.81;4943797;28;20039;-60
2021/12/17 01:09:12;;;;;;;63.28;20.65;;;;;;;10.31;78.53;104149.28;4924296;28;20054;-60
2021/12/17 01:11:38;;;;;;;64.47;19.70;;;;;;;10.28;78.43;104146.50;4931655;28;20404;-60
2021/12/17 01:14:04;;;;;;;65.80;20.98;;;;;;;10.29;78.58;104141.41;4940206;28;20190;-60
2021/12/17 01:16:30;;;;;;;58.67;19.00;;;;;;;10.34;78.14;104139.09;4930228;28;20562;-59
2021/12/17 01:22:11;;;;;;;59.65;19.63;;;;;;;10.31;78.29;104136.25;4934889;28;20035;-60
2021/12/17 01:24:39;;;;;;;57.92;18.63;;;;;;;10.29;78.20;104141.41;4938389;28;20035;-61
2021/12/17 01:35:28;;;;;;;76.03;21.93;;;;;;;10.30;78.42;104140.59;4935044;28;20211;-60
2021/12/17 01:38:55;;;;;;;66.13;20.30;;;;;;;10.32;78.56;104140.69;4941251;28;20577;-60
2021/12/17 01:41:03;;;;;;;65.15;18.90;;;;;;;10.32;78.32;104152.00;4938387;28;20310;-59
2021/12/17 01:43:35;;;;;;;56.28;19.92;;;;;;;10.36;78.42;104143.63;4932694;28;20490;-60
2021/12/17 01:46:03;;;;;;;62.35;20.73;;;;;;;10.33;78.30;104152.91;4942240;28;20506;-60
2021/12/17 01:48:37;;;;;;;68.50;21.42;;;;;;;10.31;78.03;104147.59;4941664;28;20118;-59
2021/12/17 01:59:23;;;;;;;70.45;20.83;;;;;;;10.25;78.04;104143.69;4935682;28;20092;-59
2021/12/17 02:01:59;;;;;;;60.90;19.33;;;;;;;10.29;78.22;104144.00;4933342;28;20133;-61
2021/12/17 02:04:24;;;;;;;62.67;19.77;;;;;;;10.29;78.40;104137.88;4939558;28;20070;-59
2021/12/17 02:06:49;;;;;;;70.30;22.48;;;;;;;10.30;78.00;104138.00;4934956;28;20049;-60
2021/12/17 02:20:12;;;;;;;69.10;21.52;;;;;;;10.33;78.07;104134.66;4933696;28;21885;-59
2021/12/17 02:30:54;;;;;;;81.72;22.02;;;;;;;10.34;77.98;104126.06;4937218;28;20069;-60
2021/12/17 02:33:20;;;;;;;90.25;20.98;;;;;;;10.30;78.54;104121.44;4933743;28;20054;-60
2021/12/17 02:35:46;;;;;;;89.03;19.98;;;;;;;10.33;78.44;104130.34;4937589;28;20074;-60
2021/12/17 02:38:14;;;;;;;93.57;20.85;;;;;;;10.34;78.22;104131.25;4941178;28;20043;-59
2021/12/17 02:46:07;;;;;;;89.25;22.67;;;;;;;10.29;78.30;104143.09;4940894;28;20133;-60
2021/12/17 02:48:33;;;;;;;93.05;23.55;;;;;;;10.26;78.71;104142.88;4934649;28;20046;-61
2021/12/17 02:50:59;;;;;;;89.25;23.73;;;;;;;10.20;78.40;104142.47;4934179;28;20552;-60
2021/12/17 02:53:26;;;;;;;81.05;22.50;;;;;;;10.26;78.65;104151.59;4933719;28;20043;-60
2021/12/17 02:55:54;;;;;;;90.32;23.45;;;;;;;10.23;78.59;104142.69;4937660;28;20509;-61
2021/12/17 02:58:25;;;;;;;101.30;23.10;;;;;;;10.20;78.07;104143.38;4934362;28;20038;-61
2021/12/17 03:00:52;;;;;;;84.63;22.33;;;;;;;10.24;77.96;104134.97;4936727;28;20554;-60
2021/12/17 03:03:20;;;;;;;97.53;22.70;;;;;;;10.22;78.08;104128.75;4932476;28;20570;-60
2021/12/17 03:05:46;;;;;;;82.07;20.83;;;;;;;10.21;78.06;104134.75;4935371;28;20039;-60
2021/12/17 03:08:14;;;;;;;74.05;20.17;;;;;;;10.25;77.95;104133.25;4940367;28;20608;-61
2021/12/17 03:10:41;;;;;;;86.35;21.75;;;;;;;10.22;77.72;104127.84;4928399;28;20382;-60
2021/12/17 03:13:07;;;;;;;68.55;21.20;;;;;;;10.29;78.27;104125.75;4934900;28;20469;-60
2021/12/17 03:23:27;;;;;;;88.32;34.60;;;;;;;10.28;77.99;104128.25;4936777;28;20061;-60
2021/12/17 03:25:53;;;;;;;98.50;36.23;;;;;;;10.24;78.13;104128.84;4937836;28;20145;-60
2021/12/17 03:28:19;;;;;;;102.22;37.10;;;;;;;10.27;78.17;104126.44;4937657;28;20298;-60
2021/12/17 03:30:45;;;;;;;96.15;37.85;;;;;;;10.26;77.98;104125.53;4934069;28;20043;-59
2021/12/17 03:33:11;;;;;;;90.43;37.22;;;;;;;10.18;78.45;104125.84;4938098;28;20046;-60
2021/12/17 03:35:36;;;;;;;78.47;31.05;;;;;;;10.18;78.35;104126.75;4926563;28;20047;-60
2021/12/17 03:38:02;;;;;;;78.28;31.27;;;;;;;10.20;78.21;104137.25;4938268;28;20055;-60
2021/12/17 03:40:31;;;;;;;88.05;33.33;;;;;;;10.22;78.23;104130.44;4937790;28;20375;-60
2021/12/17 03:43:01;;;;;;;87.40;31.20;;;;;;;10.12;78.42;104136.75;4934528;28;20043;-60
2021/12/17 03:45:27;;;;;;;87.60;32.15;;;;;;;10.26;78.32;104132.44;4930781;28;20458;-62
2021/12/17 03:47:55;;;;;;;80.43;29.63;;;;;;;10.23;78.33;104129.66;4941403;28;20047;-59
2021/12/17 03:50:21;;;;;;;76.90;28.05;;;;;;;10.15;77.99;104130.00;4935315;28;20047;-60
2021/12/17 03:52:47;;;;;;;61.42;24.83;;;;;;;10.24;77.94;104134.97;4937085;28;20827;-61
2021/12/17 03:55:12;;;;;;;53.75;22.00;;;;;;;10.14;78.09;104133.41;4936108;28;20534;-60
2021/12/17 03:57:38;;;;;;;49.25;20.35;;;;;;;10.27;77.64;104132.56;4945042;28;20121;-60
2021/12/17 04:00:07;;;;;;;51.15;19.25;;;;;;;10.24;77.49;104128.84;4938971;28;20487;-60
2021/12/17 04:02:32;;;;;;;44.78;18.27;;;;;;;10.14;77.80;104128.19;4941550;28;20393;-60
2021/12/17 04:04:58;;;;;;;41.85;17.20;;;;;;;10.13;77.97;104136.81;4933541;28;20138;-60
2021/12/17 04:07:23;;;;;;;46.83;17.65;;;;;;;10.00;78.33;104139.38;4936348;28;20046;-59
2021/12/17 04:09:48;;;;;;;41.92;17.90;;;;;;;9.91;78.36;104148.31;4941325;28;21221;-59
2021/12/17 04:12:17;;;;;;;38.95;16.92;;;;;;;10.18;77.60;104141.50;4937889;28;20421;-59
2021/12/17 04:14:45;;;;;;;43.40;17.80;;;;;;;9.92;78.34;104142.31;4935316;28;20917;-60
2021/12/17 04:17:14;;;;;;;40.85;17.42;;;;;;;9.94;78.12;104152.00;4934336;28;20552;-60
2021/12/17 04:19:40;;;;;;;45.58;18.30;;;;;;;9.95;78.21;104155.53;4927373;28;20565;-60
2021/12/17 04:22:06;;;;;;;43.75;18.52;;;;;;;10.02;78.13;104149.94;4937082;28;20423;-59
2021/12/17 04:24:32;;;;;;;51.80;19.75;;;;;;;9.88;78.13;104148.97;4935184;28;20042;-60
2021/12/17 04:26:57;;;;;;;46.00;18.48;;;;;;;10.12;77.83;104140.22;4939451;28;20097;-59
2021/12/17 04:29:26;;;;;;;39.95;16.70;;;;;;;10.06;77.73;104152.84;4939682;28;20356;-59
2021/12/17 04:31:54;;;;;;;48.83;19.23;;;;;;;9.97;78.09;104148.72;4943921;28;20543;-59
2021/12/17 04:34:20;;;;;;;47.45;20.42;;;;;;;10.00;77.72;104151.56;4938749;28;20050;-60
2021/12/17 04:36:49;;;;;;;52.80;20.77;;;;;;;9.95;78.07;104150.31;4934360;28;20109;-59
2021/12/17 04:39:16;;;;;;;53.95;20.75;;;;;;;10.02;78.05;104145.63;4938359;28;20058;-60
2021/12/17 04:46:46;;;;;;;52.92;20.20;;;;;;;9.88;78.10;104154.19;4940919;28;20039;-60
2021/12/17 04:57:32;;;;;;;56.35;19.58;;;;;;;9.93;78.09;104145.00;4930672;28;20069;-60
2021/12/17 05:00:03;;;;;;;;;;;;;;;9.96;78.16;104140.00;4940263;28;20046;-59
2021/12/17 05:02:30;;;;;;;50.38;17.67;;;;;;;10.00;77.67;104138.53;4936828;28;20386;-60
2021/12/17 05:04:55;;;;;;;53.60;18.77;;;;;;;10.05;77.84;104144.94;4938094;28;20105;-61
2021/12/17 05:07:23;;;;;;;54.13;18.35;;;;;;;10.01;77.80;104150.72;4938429;28;20046;-61
2021/12/17 05:09:59;;;;;;;49.05;18.23;;;;;;;10.02;78.05;104144.72;4937614;28;20085;-59
2021/12/17 05:23:06;;;;;;;46.17;15.82;;;;;;;10.00;78.19;104142.00;4938769;28;20081;-60
2021/12/17 05:25:31;;;;;;;40.80;15.52;;;;;;;10.04;77.86;104131.00;4933611;28;20043;-60
2021/12/17 05:28:02;;;;;;;44.28;15.50;;;;;;;10.09;77.77;104128.69;4940883;28;20055;-59
2021/12/17 05:30:28;;;;;;;44.83;16.33;;;;;;;10.07;77.54;104130.28;4931484;28;20042;-60
2021/12/17 05:32:54;;;;;;;50.13;16.20;;;;;;;10.11;77.45;104132.31;4934956;28;20129;-60
2021/12/17 05:35:20;;;;;;;43.75;14.65;;;;;;;10.07;77.45;104130.28;4939857;28;20390;-60
2021/12/17 05:37:45;;;;;;;40.80;14.65;;;;;;;10.11;77.50;104133.22;4937804;28;20077;-59
2021/12/17 05:40:11;;;;;;;44.75;14.77;;;;;;;10.06;77.31;104133.72;4940654;28;20739;-60
2021/12/17 05:42:37;;;;;;;46.10;14.85;;;;;;;10.08;77.39;104140.81;4937559;28;20049;-60
2021/12/17 05:45:10;;;;;;;45.22;14.95;;;;;;;10.10;77.55;104151.38;4936559;28;20047;-59
2021/12/17 05:47:35;;;;;;;42.40;13.95;;;;;;;10.06;77.60;104144.16;4934777;28;20043;-61
2021/12/17 05:50:01;;;;;;;38.58;13.73;;;;;;;9.93;77.61;104154.53;4938375;28;20384;-59
2021/12/17 05:52:26;;;;;;;41.78;13.65;;;;;;;10.00;77.92;104151.56;4939606;28;20063;-60
2021/12/17 05:54:51;;;;;;;42.35;14.20;;;;;;;10.06;77.69;104149.34;4936429;28;20133;-60
2021/12/17 05:57:17;;;;;;;40.95;13.32;;;;;;;10.06;77.31;104151.97;4935137;28;20083;-60
2021/12/17 05:59:42;;;;;;;37.55;12.60;;;;;;;10.09;77.19;104146.94;4932286;28;20066;-61
2021/12/17 06:02:13;;;;;;;37.13;12.48;;;;;;;9.90;78.17;104150.00;4937837;28;20143;-60
2021/12/17 06:04:39;;;;;;;35.63;12.82;;;;;;;9.98;77.95;104158.34;4938281;28;20089;-59
2021/12/17 06:07:05;;;;;;;36.25;12.57;;;;;;;10.05;77.57;104145.84;4936942;28;20045;-59
2021/12/17 06:09:30;;;;;;;35.55;12.23;;;;;;;10.14;77.44;104155.97;4930426;28;20047;-60
2021/12/17 06:11:59;;;;;;;35.83;11.85;;;;;;;10.00;77.48;104155.03;4931740;28;20042;-60
2021/12/17 06:14:24;;;;;;;36.80;11.85;;;;;;;10.04;77.61;104161.38;4933603;28;20653;-60
2021/12/17 06:16:49;;;;;;;37.47;11.98;;;;;;;10.05;77.10;104158.88;4936204;28;20612;-60
2021/12/17 06:19:19;;;;;;;35.55;11.65;;;;;;;10.12;77.18;104165.41;4949530;28;20154;-60
2021/12/17 06:21:47;;;;;;;36.58;11.80;;;;;;;10.04;77.36;104164.88;4934841;28;22186;-60
2021/12/17 06:24:12;;;;;;;38.30;11.52;;;;;;;10.09;77.44;104170.41;4937590;28;20047;-60
2021/12/17 06:26:38;;;;;;;39.47;12.43;;;;;;;10.07;77.40;104172.91;4937128;28;20678;-60
2021/12/17 06:29:04;;;;;;;35.17;11.43;;;;;;;10.11;77.14;104177.53;4936616;28;20054;-60
2021/12/17 06:31:29;;;;;;;40.47;11.88;;;;;;;10.13;77.16;104173.31;4929745;28;20474;-61
2021/12/17 06:33:55;;;;;;;35.03;11.52;;;;;;;10.08;77.35;104171.19;4934860;28;20051;-60
2021/12/17 06:36:20;;;;;;;35.88;11.32;;;;;;;10.12;77.36;104173.25;4936744;28;20116;-60
2021/12/17 06:38:45;;;;;;;35.17;10.95;;;;;;;10.16;77.14;104172.63;4939978;28;20218;-60
2021/12/17 06:41:11;;;;;;;37.63;11.43;;;;;;;10.09;77.62;104173.91;4938661;28;20047;-61
2021/12/17 06:43:37;;;;;;;32.70;10.70;;;;;;;10.13;77.38;104181.13;4929037;28;20070;-60
2021/12/17 06:48:49;;;;;;;31.80;10.07;;;;;;;10.16;77.25;104180.44;4934960;28;20150;-61
2021/12/17 07:08:08;;;;;;;33.60;10.23;;;;;;;10.22;76.86;104177.38;4934273;28;20057;-60
2021/12/17 07:10:16;;;;;;;28.77;9.48;;;;;;;10.29;76.58;104183.13;4938674;28;20046;-61
2021/12/17 07:21:52;;;;;;;29.73;9.35;;;;;;;10.23;76.61;104189.63;4933207;28;20050;-60
2021/12/17 07:35:23;;;;;;;27.27;9.02;;;;;;;10.20;76.92;104205.06;4935795;28;20504;-60
2021/12/17 07:40:05;;;;;;;26.67;8.90;;;;;;;10.30;76.84;104200.59;4935519;28;20134;-59
2021/12/17 07:42:31;;;;;;;29.98;9.25;;;;;;;10.23;76.54;104200.06;4938075;28;20043;-59
2021/12/17 07:44:57;;;;;;;29.45;8.80;;;;;;;10.20;77.04;104199.84;4936090;28;20334;-61
2021/12/17 07:47:23;;;;;;;29.23;9.75;;;;;;;10.20;76.90;104208.56;4936811;28;20486;-59
2021/12/17 07:49:48;;;;;;;31.90;9.55;;;;;;;10.24;77.06;104209.69;4934602;28;20054;-60
2021/12/17 07:52:14;;;;;;;29.17;9.38;;;;;;;10.30;76.74;104211.00;4937276;28;20073;-59
2021/12/17 07:54:39;;;;;;;30.65;9.52;;;;;;;10.29;76.48;104222.25;4944876;28;20161;-59
2021/12/17 07:57:05;;;;;;;31.58;9.65;;;;;;;10.30;76.98;104217.94;4933969;28;20039;-60
2021/12/17 07:59:30;;;;;;;31.25;9.75;;;;;;;10.27;76.98;104223.84;4934129;28;20577;-61
2021/12/17 08:01:55;;;;;;;34.72;9.85;;;;;;;10.28;76.79;104217.81;4942727;28;20192;-60
2021/12/17 08:04:22;;;;;;;33.25;9.60;;;;;;;10.32;76.78;104227.66;4935454;28;20451;-60
2021/12/17 08:06:47;;;;;;;31.60;9.75;;;;;;;10.25;77.13;104221.91;4941069;28;20410;-60
2021/12/17 08:09:13;;;;;;;33.25;9.07;;;;;;;10.22;77.16;104235.66;4939855;28;20057;-60
2021/12/17 08:11:39;;;;;;;34.08;10.27;;;;;;;10.33;76.71;104231.16;4928843;28;20101;-60
2021/12/17 08:14:13;;;;;;;34.70;9.95;;;;;;;10.34;76.84;104227.75;4934476;28;20382;-60
2021/12/17 08:17:29;;;;;;;37.72;11.02;;;;;;;10.36;76.72;104232.28;4938639;28;20784;-59
2021/12/17 08:27:43;;;;;;;39.78;11.70;;;;;;;10.24;76.67;104223.63;4934888;28;20042;-60
2021/12/17 08:32:42;;;;;;;39.00;11.05;;;;;;;10.40;76.55;104220.34;4934936;28;20105;-62
2021/12/17 08:35:08;;;;;;;41.28;11.93;;;;;;;10.34;76.61;104212.13;4939602;28;20174;-59
2021/12/17 08:37:33;;;;;;;41.50;12.43;;;;;;;10.45;76.50;104214.63;4938307;28;20516;-59
2021/12/17 08:39:59;;;;;;;37.03;11.63;;;;;;;10.45;76.55;104209.41;4936220;28;20043;-59
2021/12/17 08:42:25;;;;;;;37.80;11.63;;;;;;;10.52;76.47;104216.84;4942335;28;20050;-60
2021/12/17 08:44:50;;;;;;;42.97;11.73;;;;;;;10.57;76.31;104220.66;4941748;28;20133;-60
2021/12/17 08:47:16;;;;;;;38.38;11.85;;;;;;;10.63;76.08;104209.72;4938404;28;20618;-59
2021/12/17 08:49:43;;;;;;;42.10;13.27;;;;;;;10.62;76.34;104215.75;4931607;28;20043;-59
2021/12/17 08:52:08;;;;;;;43.63;12.63;;;;;;;10.62;76.51;104207.91;4941447;28;20350;-59
2021/12/17 08:54:35;;;;;;;38.88;12.43;;;;;;;10.68;76.14;104208.31;4944717;28;20459;-60
2021/12/17 08:57:01;;;;;;;41.13;11.82;;;;;;;10.71;76.23;104207.63;4939223;28;20051;-60
2021/12/17 08:59:29;;;;;;;38.80;12.70;;;;;;;10.75;76.10;104212.25;4937859;28;20106;-61
2021/12/17 09:01:54;;;;;;;37.83;12.15;;;;;;;10.76;75.98;104209.75;4939852;28;20557;-60
2021/12/17 09:04:19;;;;;;;39.95;12.20;;;;;;;10.82;76.26;104217.06;4938458;28;20050;-61
2021/12/17 09:06:45;;;;;;;35.28;11.27;;;;;;;10.66;76.48;104214.25;4940137;28;20165;-60
2021/12/17 09:09:10;;;;;;;34.97;10.60;;;;;;;10.79;76.30;104225.63;4941184;28;20138;-59
2021/12/17 09:11:35;;;;;;;32.97;10.55;;;;;;;10.83;75.82;104227.63;4933851;28;20818;-62
2021/12/17 09:14:02;;;;;;;32.85;11.00;;;;;;;10.85;75.81;104223.41;4943139;28;20059;-60
2021/12/17 09:16:31;;;;;;;29.60;10.63;;;;;;;10.99;75.61;104213.84;4934929;28;20043;-59
2021/12/17 09:18:56;;;;;;;29.48;9.90;;;;;;;10.91;75.78;104208.16;4937051;28;20257;-59
2021/12/17 09:21:22;;;;;;;29.58;9.70;;;;;;;10.79;75.96;104211.66;4937057;28;20488;-60
2021/12/17 09:23:47;;;;;;;35.05;10.40;;;;;;;10.95;75.51;104215.38;4934022;28;20046;-60
2021/12/17 09:26:15;;;;;;;30.25;9.85;;;;;;;11.08;75.73;104217.06;4939388;28;20093;-60
2021/12/17 09:28:40;;;;;;;27.67;9.82;;;;;;;11.05;75.33;104214.25;4936739;28;20422;-60
2021/12/17 09:31:11;;;;;;;27.92;9.45;;;;;;;11.11;75.37;104222.47;4939705;28;20043;-62
2021/12/17 09:33:36;;;;;;;26.88;9.32;;;;;;;11.17;74.81;104224.56;4929921;28;20121;-60
2021/12/17 09:36:02;;;;;;;27.08;9.73;;;;;;;11.20;74.53;104216.94;4931952;28;20570;-60
2021/12/17 09:38:28;;;;;;;26.30;9.07;;;;;;;11.21;75.05;104224.88;4936221;28;20106;-60
2021/12/17 09:40:54;;;;;;;28.77;9.27;;;;;;;11.06;74.99;104223.88;4934128;28;20051;-60
2021/12/17 09:43:22;;;;;;;26.63;9.43;;;;;;;11.18;75.03;104235.13;4933372;28;20117;-60
2021/12/17 09:45:47;;;;;;;24.23;9.13;;;;;;;11.24;75.02;104238.13;4934013;28;20075;-60
2021/12/17 09:48:13;;;;;;;25.45;9.30;;;;;;;11.36;74.62;104235.38;4937605;28;20065;-59
2021/12/17 09:50:39;;;;;;;23.10;8.75;;;;;;;11.37;74.80;104234.59;4939527;28;20126;-59
2021/12/17 09:53:05;;;;;;;23.02;8.45;;;;;;;11.26;74.60;104240.84;4939530;28;20065;-60
2021/12/17 09:55:30;;;;;;;22.20;8.52;;;;;;;11.38;74.44;104246.84;4933124;28;20494;-61
2021/12/17 09:57:56;;;;;;;20.77;7.63;;;;;;;11.29;74.59;104254.06;4938360;28;20125;-60
2021/12/17 10:00:24;;;;;;;22.48;8.10;;;;;;;11.37;74.43;104253.78;4932011;28;20157;-60
2021/12/17 10:02:50;;;;;;;20.42;8.02;;;;;;;11.26;74.36;104251.28;4940210;28;20101;-59
2021/12/17 10:05:22;;;;;;;16.83;7.07;;;;;;;11.45;73.81;104249.03;4939906;28;20054;-61
2021/12/17 10:08:00;;;;;;;22.08;7.07;;;;;;;11.36;73.81;104256.28;4933178;28;20461;-61
2021/12/17 10:10:40;;;;;;;20.33;7.63;;;;;;;11.38;73.77;104252.06;4935866;28;20537;-60
2021/12/17 10:13:15;;;;;;;21.13;7.70;;;;;;;11.24;73.95;104258.09;4941416;28;20039;-60
2021/12/17 10:15:43;;;;;;;22.10;7.60;;;;;;;11.34;73.90;104260.53;4929295;28;20393;-60
2021/12/17 10:18:08;;;;;;;21.42;7.82;;;;;;;11.34;73.60;104261.41;4938306;28;20050;-60
2021/12/17 10:20:58;;;;;;;19.80;7.65;;;;;;;11.32;73.54;104268.25;4938959;28;20041;-60
2021/12/17 10:23:25;;;;;;;22.35;7.80;;;;;;;11.39;74.00;104272.16;4933094;28;20179;-60
2021/12/17 10:25:50;;;;;;;23.40;8.77;;;;;;;11.43;73.87;104271.53;4925153;28;20046;-60
2021/12/17 10:28:16;;;;;;;24.25;8.50;;;;;;;11.47;73.63;104262.19;4937299;28;20598;-60
2021/12/17 10:30:44;;;;;;;23.70;8.77;;;;;;;11.37;74.06;104263.31;4927753;28;20038;-60
2021/12/17 10:33:17;;;;;;;21.15;8.48;;;;;;;11.31;74.33;104268.16;4935396;28;20070;-60
2021/12/17 10:35:46;;;;;;;24.55;8.38;;;;;;;11.43;73.98;104275.88;4926065;28;20043;-60
2021/12/17 10:38:15;;;;;;;20.65;8.13;;;;;;;11.33;74.09;104269.16;4938023;28;21687;-60
2021/12/17 10:40:56;;;;;;;22.33;8.55;;;;;;;11.32;73.81;104275.19;4937581;28;20530;-60
2021/12/17 10:43:37;;;;;;;25.05;8.80;;;;;;;11.20;74.70;104269.16;4936610;28;20054;-60
2021/12/17 10:46:32;;;;;;;25.42;8.90;;;;;;;11.37;74.56;104269.44;4941943;28;20051;-60
2021/12/17 10:54:13;;;;;;;16.67;6.50;;;;;;;11.39;73.87;104270.47;4936945;28;20454;-60
2021/12/17 10:56:41;;;;;;;17.52;6.70;;;;;;;11.29;73.87;104265.44;4936070;28;20062;-60
2021/12/17 10:59:09;;;;;;;19.52;7.13;;;;;;;11.34;74.15;104263.13;4937451;28;20098;-60
2021/12/17 11:01:55;;;;;;;12.77;5.78;;;;;;;11.39;73.94;104269.56;4930332;28;20039;-60
2021/12/17 11:04:23;;;;;;;14.77;5.45;;;;;;;11.35;74.37;104271.03;4931088;28;20035;-60
2021/12/17 11:06:53;;;;;;;11.55;4.88;;;;;;;11.13;74.78;104272.19;4934657;28;20057;-61
2021/12/17 11:09:35;;;;;;;12.43;4.57;;;;;;;10.99;74.81;104274.78;4931804;28;20514;-60
2021/12/17 11:12:35;;;;;;;10.63;4.68;;;;;;;10.99;74.60;104266.06;4933025;28;20504;-60
2021/12/17 11:15:15;;;;;;;15.18;4.90;;;;;;;11.20;74.48;104261.34;4941753;28;20228;-61
2021/12/17 11:17:42;;;;;;;11.68;4.88;;;;;;;11.21;74.33;104253.63;4926440;28;20525;-59
2021/12/17 11:20:20;;;;;;;9.07;4.40;;;;;;;11.22;74.55;104260.63;4931468;28;20505;-60
2021/12/17 11:22:51;;;;;;;12.90;4.90;;;;;;;11.28;74.41;104249.69;4936107;28;20658;-59
2021/12/17 11:25:17;;;;;;;11.73;4.78;;;;;;;11.22;74.48;104263.22;4938465;28;20043;-61
2021/12/17 11:27:43;;;;;;;12.18;4.90;;;;;;;11.14;74.57;104258.34;4932697;28;20493;-61
2021/12/17 11:30:13;;;;;;;8.23;3.80;;;;;;;11.14;74.28;104258.34;4935154;28;20046;-61
2021/12/17 11:32:42;;;;;;;8.90;4.25;;;;;;;11.17;74.39;104246.34;4940832;28;20046;-60
2021/12/17 11:35:08;;;;;;;8.13;4.00;;;;;;;11.02;74.31;104255.81;4930243;28;20085;-58
2021/12/17 11:37:34;;;;;;;9.13;4.38;;;;;;;11.04;74.57;104255.94;4935833;28;20466;-60
2021/12/17 11:40:04;;;;;;;7.80;3.70;;;;;;;11.10;73.94;104249.38;4940893;28;20251;-61
2021/12/17 11:42:47;;;;;;;9.80;4.05;;;;;;;11.16;74.18;104248.91;4943114;28;20580;-60
2021/12/17 11:45:28;;;;;;;8.63;4.07;;;;;;;11.26;74.19;104246.97;4939330;28;20280;-60
2021/12/17 11:48:11;;;;;;;8.25;4.03;;;;;;;11.27;74.21;104246.16;4944297;28;20050;-61
2021/12/17 11:50:36;;;;;;;8.27;3.83;;;;;;;11.33;74.09;104243.94;4942383;28;20879;-61
2021/12/17 11:53:16;;;;;;;7.47;3.60;;;;;;;11.21;74.26;104250.09;4934399;28;20051;-59
2021/12/17 11:55:45;;;;;;;6.78;3.45;;;;;;;10.99;73.61;104253.91;4931235;28;20268;-60
2021/12/17 11:58:14;;;;;;;6.47;3.13;;;;;;;10.90;73.72;104245.50;4940643;28;20608;-60
2021/12/17 12:00:40;;;;;;;7.60;3.42;;;;;;;11.08;73.87;104240.56;4942878;28;20043;-59
2021/12/17 12:03:23;;;;;;;6.72;3.08;;;;;;;11.13;73.56;104236.53;4934735;28;20049;-60
2021/12/17 12:06:00;;;;;;;5.75;3.03;;;;;;;11.17;73.10;104237.63;4935902;28;20042;-60
2021/12/17 12:08:45;;;;;;;5.93;3.03;;;;;;;11.18;72.68;104242.03;4940509;28;20035;-60
2021/12/17 12:11:12;;;;;;;;;;;;;;;11.24;72.15;104237.22;4940219;28;20084;-60
2021/12/17 12:13:43;;;;;;;4.72;2.70;;;;;;;11.23;72.03;104240.63;4926015;28;20226;-60
2021/12/17 12:16:10;;;;;;;5.57;2.67;;;;;;;11.25;72.35;104249.47;4939210;28;20050;-60
2021/12/17 12:18:42;;;;;;;4.03;2.50;;;;;;;11.23;71.97;104258.91;4959050;28;20050;-60
2021/12/17 12:21:09;;;;;;;4.97;2.80;;;;;;;11.23;71.84;104258.91;4936205;28;20050;-59
2021/12/17 12:23:37;;;;;;;4.90;2.58;;;;;;;11.31;71.58;104255.09;4931944;28;20046;-61
2021/12/17 12:26:07;;;;;;;4.20;2.50;;;;;;;11.16;71.90;104246.28;4937687;28;20043;-60
2021/12/17 12:28:45;;;;;;;5.97;2.85;;;;;;;11.24;71.74;104256.41;4937607;28;20053;-60
2021/12/17 12:31:17;;;;;;;6.18;3.20;;;;;;;11.15;71.80;104252.31;4940845;28;20823;-59
2021/12/17 12:34:00;;;;;;;5.70;3.00;;;;;;;11.09;72.23;104259.75;4928566;28;20038;-59
2021/12/17 12:36:54;;;;;;;4.82;2.67;;;;;;;11.09;71.68;104251.91;4935601;28;20058;-60
2021/12/17 12:39:43;;;;;;;5.63;2.85;;;;;;;11.14;72.22;104256.63;4941486;28;20046;-61
2021/12/17 12:42:16;;;;;;;5.18;2.67;;;;;;;11.02;71.92;104258.44;4924318;28;20045;-60
2021/12/17 12:44:41;;;;;;;4.43;2.70;;;;;;;11.10;71.96;104256.34;4938438;28;20049;-60
2021/12/17 12:47:29;;;;;;;4.63;2.50;;;;;;;11.04;71.28;104263.78;4934449;28;20043;-60
2021/12/17 12:50:06;;;;;;;4.55;2.30;;;;;;;11.07;71.32;104257.03;4929547;28;20061;-60
2021/12/17 12:52:32;;;;;;;5.80;2.50;;;;;;;11.06;71.69;104251.69;4954270;28;20631;-60
2021/12/17 12:55:00;;;;;;;5.22;2.50;;;;;;;11.10;71.44;104245.88;4939436;28;20051;-59
2021/12/17 12:57:36;;;;;;;4.85;2.58;;;;;;;10.94;71.91;104243.97;4953118;28;20043;-61
2021/12/17 13:00:12;;;;;;;6.93;2.90;;;;;;;11.05;71.56;104247.28;4938606;28;20054;-59
2021/12/17 13:02:39;;;;;;;5.25;2.80;;;;;;;10.95;72.07;104245.78;4941450;28;20038;-60
2021/12/17 13:05:06;;;;;;;4.95;2.70;;;;;;;10.99;71.73;104238.25;4935344;28;20128;-59
2021/12/17 13:07:40;;;;;;;5.78;2.70;;;;;;;10.93;72.14;104242.16;4924629;28;20495;-60
2021/12/17 13:10:39;;;;;;;4.85;2.92;;;;;;;10.95;71.64;104225.81;4940287;28;20625;-60
2021/12/17 13:13:19;;;;;;;5.65;3.13;;;;;;;10.84;72.09;104232.03;4931704;28;20078;-60
2021/12/17 13:15:51;;;;;;;6.38;3.10;;;;;;;10.79;72.02;104228.22;4937628;28;22461;-60
2021/12/17 13:21:20;;;;;;;6.78;3.17;;;;;;;10.82;72.08;104230.13;4930273;28;20312;-60
2021/12/17 13:23:51;;;;;;;5.90;3.38;;;;;;;10.70;72.11;104240.66;4934929;28;20047;-61
2021/12/17 13:26:18;;;;;;;5.65;3.20;;;;;;;10.86;72.53;104229.50;4941922;28;20137;-60
2021/12/17 13:28:49;;;;;;;5.72;3.47;;;;;;;10.80;72.43;104227.41;4936075;28;20079;-60
2021/12/17 13:31:38;;;;;;;6.20;3.63;;;;;;;10.66;72.65;104225.59;4933173;28;20139;-59
2021/12/17 13:34:15;;;;;;;5.72;3.22;;;;;;;10.72;72.63;104222.50;4938601;28;20485;-60
2021/12/17 13:36:50;;;;;;;6.28;3.28;;;;;;;10.86;72.40;104219.06;4940330;28;20365;-60
2021/12/17 13:39:15;;;;;;;4.82;3.05;;;;;;;10.94;72.51;104228.31;4945857;28;20058;-60
2021/12/17 13:41:42;;;;;;;5.13;3.00;;;;;;;10.94;72.39;104221.38;4931501;28;20336;-60
2021/12/17 13:44:45;;;;;;;5.97;2.90;;;;;;;10.98;71.91;104215.53;4937557;28;20045;-60
2021/12/17 13:47:20;;;;;;;5.00;3.20;;;;;;;10.94;71.31;104218.78;4939317;28;20039;-60
2021/12/17 13:49:57;;;;;;;4.85;2.60;;;;;;;10.95;71.34;104211.84;4933968;28;20145;-59
2021/12/17 13:52:24;;;;;;;5.18;2.90;;;;;;;11.10;71.16;104214.56;4939553;28;20703;-59
2021/12/17 13:54:50;;;;;;;4.30;2.72;;;;;;;11.20;71.29;104209.09;4937123;28;20110;-59
2021/12/17 13:57:22;;;;;;;3.78;2.47;;;;;;;11.16;70.38;104218.44;4939128;28;20046;-60
2021/12/17 13:59:49;;;;;;;5.65;2.90;;;;;;;11.28;70.65;104216.59;4934266;28;20492;-60
2021/12/17 14:02:17;;;;;;;4.38;2.72;;;;;;;11.25;70.70;104212.91;4934763;28;20502;-60
2021/12/17 14:05:05;;;;;;;4.80;2.90;;;;;;;11.15;71.06;104227.09;4938425;28;20130;-60
2021/12/17 14:07:32;;;;;;;4.72;2.88;;;;;;;11.12;70.17;104224.28;4927976;28;20130;-60
2021/12/17 14:10:09;;;;;;;5.68;2.85;;;;;;;11.16;70.14;104217.56;4939082;28;20182;-60
2021/12/17 14:12:39;;;;;;;5.78;3.03;;;;;;;11.19;70.04;104213.41;4916928;28;20557;-59
2021/12/17 14:15:11;;;;;;;5.75;3.00;;;;;;;11.12;71.09;104223.38;4938124;28;20494;-59
2021/12/17 14:17:48;;;;;;;6.50;3.25;;;;;;;11.12;71.25;104223.38;4929314;28;20047;-60